WEATHER DATA

YESTERDAY
Time Temp. Dewp. Hum. Bar.
00:04 12 11.7 98 1012.3
00:15 12.1 11.8 98 1012.5
00:25 12.2 11.9 98 1012.4
00:34 12.1 11.8 98 1012.6
00:45 12 11.7 98 1012.6
00:55 11.9 11.6 98 1012.6
01:05 11.8 11.5 98 1012.6
01:15 11.7 11.4 98 1012.5
01:26 11.6 11.4 99 1012.6
01:35 11.6 11.4 99 1012.5
01:45 11.4 11.2 99 1012.4
01:55 11.2 11 99 1012.4
02:06 11 10.8 99 1012.4
02:16 10.8 10.6 99 1012.6
02:26 10.7 10.5 99 1012.4
02:36 10.7 10.7 100 1012.4
02:46 10.6 10.6 100 1012.5
02:56 10.5 10.5 100 1012.5
03:06 10.3 10.3 100 1012.5
03:17 10.2 10.2 100 1012.4
03:27 10 10 100 1012.3
03:37 10.1 10.1 100 1012.3
03:47 10.2 10.2 100 1012.3
03:57 10.4 10.4 100 1012.3
04:07 10.6 10.6 100 1012.4
04:17 10.6 10.6 100 1012.4
04:28 10.4 10.4 100 1012.4
04:38 10.2 10.2 100 1012.5
04:48 10.1 10.1 100 1012.6
04:57 9.9 9.9 100 1012.4
05:08 9.7 9.7 100 1012.5
05:18 9.7 9.7 100 1012.6
05:28 9.7 9.7 100 1012.7
05:38 9.7 9.7 100 1012.8
05:49 9.7 9.7 100 1012.7
05:59 9.7 9.7 100 1012.6
06:08 9.8 9.8 100 1012.9
06:19 9.8 9.8 100 1013.1
06:29 9.8 9.8 100 1012.9
06:39 9.7 9.7 100 1013.1
06:49 9.7 9.7 100 1012.9
07:00 9.9 9.9 100 1013.2
07:09 10 10 100 1013.1
07:19 10.1 10.1 100 1013.3
07:30 10.2 10.2 100 1013.4
07:40 10.2 10.2 100 1013.5
07:50 10.2 10.2 100 1013.6
08:00 10.4 10.4 100 1013.6
08:11 10.6 10.6 100 1013.5
08:20 10.9 10.9 100 1013.5
08:30 11.2 11.2 100 1013.5
08:40 11.5 11.5 100 1013.6
08:51 11.8 11.8 100 1013.8
09:01 12.1 12.1 100 1013.9
09:11 12.2 11.9 98 1014
09:21 12.4 12.1 98 1014
09:31 12.5 12.2 98 1014.1
09:41 12.7 12.4 98 1014.2
09:51 12.8 12.3 97 1014.1
10:02 12.9 12.4 97 1014.2
10:12 13.1 12.5 96 1014
10:22 13.3 12.5 95 1014.3
10:32 13.3 12.7 96 1014.3
10:42 13.4 12.8 96 1014.3
10:52 13.5 12.7 95 1014.3
11:02 13.6 12.8 95 1014.3
11:13 13.8 13 95 1014.3
11:23 14 13.2 95 1014.3
11:33 14.2 13.1 93 1014.5
11:42 14.3 13.2 93 1014.5
11:53 14.4 13.3 93 1014.5
12:03 14.4 13.1 92 1014.6
12:13 14.5 13.2 92 1014.5
12:23 14.4 13.3 93 1014.6
12:34 14.3 13.3 94 1014.6
12:43 14.2 13.4 95 1014.6
12:53 14.2 13.7 97 1014.7
13:04 14.3 13.8 97 1014.6
13:14 14.3 13.5 95 1014.6
13:24 14.4 13.6 95 1014.5
13:34 14.4 13.6 95 1014.5
13:45 14.4 13.4 94 1014.6
13:54 14.4 13.4 94 1014.6
14:04 14.5 13.5 94 1014.7
14:15 14.6 13.8 95 1014.7
14:25 14.9 13.9 94 1014.8
14:35 14.9 13.8 93 1014.8
14:45 14.8 13.7 93 1014.7
14:55 14.7 13.6 93 1014.6
15:05 14.6 13.6 94 1014.8
15:15 14.5 13.7 95 1014.6
15:25 14.5 13.7 95 1014.8
15:36 14.5 13.7 95 1014.8
15:46 14.5 13.9 96 1014.9
15:56 14.5 13.9 96 1014.9
16:06 14.5 13.7 95 1014.9
16:16 14.4 13.6 95 1015
16:26 14.4 13.8 96 1015
16:36 14.3 13.7 96 1015.1
16:47 14.1 13.6 97 1015.1
16:57 14.1 13.6 97 1015.2
17:07 14 13.7 98 1015.2
17:16 13.9 13.6 98 1015.2
17:27 13.9 13.6 98 1015.4
17:37 13.8 13.5 98 1015.5
17:47 13.8 13.5 98 1015.5
17:57 13.7 13.4 98 1015.7
18:08 13.6 13.3 98 1015.8
18:17 13.5 13.3 99 1016
18:27 13.5 13.3 99 1016.1
18:38 13.4 13.2 99 1016.2
18:48 13.4 13.2 99 1016.5
18:58 13.4 13.2 99 1016.4
19:08 13.3 13.1 99 1016.5
19:19 13.2 13 99 1016.7
19:28 13 12.7 98 1016.8
19:38 12.6 12.3 98 1016.8
19:49 12.4 12.2 99 1017
19:59 12.3 12.1 99 1017.1
20:09 12.2 12.2 100 1017.2
20:19 12.1 12.1 100 1017.3
20:29 12 12 100 1017.3
20:39 12 12 100 1017.4
20:49 11.9 11.9 100 1017.4
20:59 11.8 11.8 100 1017.7
21:10 11.7 11.7 100 1017.8
21:29 11.9 11.9 100 1018
21:40 11.9 11.9 100 1018.2
21:50 12 12 100 1018.2
22:00 12.1 12.1 100 1018.2
22:10 12.1 12.1 100 1018.3
22:21 12.1 12.1 100 1018.4
22:31 12.1 12.1 100 1018.5
22:40 12 12 100 1018.7
23:01 11.5 11.5 100 1018.8
23:21 11.6 11.6 100 1019
23:32 11.6 11.6 100 1018.9
23:41 11.7 11.7 100 1018.9
23:51 11.8 11.8 100 1019

DAY STATISTIC

2018-10-17
TEMPERATURE
AVERAGE
12.3
HIGH
14.9
14:25
LOW
9.7
05:08
PRESSURE
AVERAGE
1014.6
HIGH
1019.0
23:21
LOW
1012.3
00:04
DEWPOINT
AVERAGE
12.0
HIGH
13.9
14:25
LOW
9.7
05:08
HUMIDITY
AVERAGE
98
HIGH
100
02:36
LOW
92
12:03
TEMPERATURE (°C)
LOW
9.7
HIGH
14.9
AVERAGE
12.3
PRESSURE (hpa)
LOW
1012.3
HIGH
1019.0
AVERAGE
1014.6
DEVICE